Time;durP1;ratioP1;P1;durP2;ratioP2;P2;SDS_P1;SDS_P2;PMS_P1;PMS_P2;Temp;Humidity;BMP_temperature;BMP_pressure;BME280_temperature;BME280_humidity;BME280_pressure;Samples;Min_cycle;Max_cycle;Signal;HPM_P1;HPM_P2
2021/03/04 00:00:16;;;;;;;20.38;10.63;;;10.20;99.90;;;9.57;100.00;102183.38;4137592;28;20085;-69
2021/03/04 00:02:17;;;;;;;19.17;10.43;;;10.20;99.90;;;9.73;100.00;102193.63;4120385;28;20507;-69
2021/03/04 00:04:18;;;;;;;19.30;10.38;;;10.20;99.90;;;9.76;100.00;102201.31;4120034;28;20030;-70
2021/03/04 00:06:19;;;;;;;17.02;11.35;;;10.20;99.90;;;9.67;100.00;102184.38;4137259;28;20439;-69
2021/03/04 00:08:20;;;;;;;18.27;11.10;;;10.20;99.90;;;9.59;100.00;102186.72;4137216;28;20038;-70
2021/03/04 00:10:22;;;;;;;17.45;11.13;;;10.20;99.90;;;9.61;100.00;102189.28;4120140;28;20097;-69
2021/03/04 00:12:23;;;;;;;17.23;9.70;;;10.20;99.90;;;9.58;100.00;102192.97;4136976;28;20038;-69
2021/03/04 00:14:24;;;;;;;21.20;10.40;;;10.10;99.90;;;9.48;100.00;102184.06;4137153;28;20367;-70
2021/03/04 00:16:25;;;;;;;21.02;9.85;;;10.10;99.90;;;9.66;100.00;102185.34;4137561;28;20022;-70
2021/03/04 00:18:26;;;;;;;19.73;10.68;;;10.10;99.90;;;9.54;100.00;102172.22;4136829;28;20077;-70
2021/03/04 00:20:32;;;;;;;19.38;10.02;;;10.10;99.90;;;9.58;100.00;102160.53;4137306;28;20031;-70
2021/03/04 00:22:32;;;;;;;19.52;10.00;;;10.10;99.90;;;9.47;100.00;102163.94;4137222;28;20022;-69
2021/03/04 00:24:33;;;;;;;15.55;10.13;;;10.00;99.90;;;9.34;100.00;102156.13;4119860;28;20066;-69
2021/03/04 00:26:35;;;;;;;13.70;9.25;;;9.90;99.90;;;9.44;100.00;102158.91;4137082;28;20031;-69
2021/03/04 00:28:36;;;;;;;16.08;9.15;;;9.90;99.90;;;9.48;100.00;102184.06;4120041;28;20031;-69
2021/03/04 00:30:36;;;;;;;15.77;9.38;;;9.80;99.90;;;9.32;100.00;102162.44;4137052;28;20069;-69
2021/03/04 00:32:37;;;;;;;15.48;8.52;;;9.80;99.90;;;9.21;100.00;102154.50;4137225;28;20041;-69
2021/03/04 00:34:38;;;;;;;16.00;9.52;;;9.70;99.90;;;8.84;100.00;102082.69;4137048;28;20045;-69
2021/03/04 00:36:39;;;;;;;15.88;8.95;;;9.70;99.90;;;9.28;100.00;102163.63;4119604;28;20034;-69
2021/03/04 00:38:40;;;;;;;13.45;7.95;;;9.70;99.90;;;9.13;100.00;102151.59;4136916;28;20030;-69
2021/03/04 00:40:41;;;;;;;14.70;8.70;;;9.60;99.90;;;9.11;100.00;102174.56;4137150;28;20037;-69
2021/03/04 00:42:42;;;;;;;12.77;7.55;;;9.60;99.90;;;9.06;100.00;102176.69;4136778;28;20116;-69
2021/03/04 00:44:43;;;;;;;15.02;8.68;;;9.50;99.90;;;9.06;100.00;102177.53;4136967;28;20034;-69
2021/03/04 00:46:44;;;;;;;12.73;9.10;;;9.40;99.90;;;9.16;100.00;102167.16;4136881;28;20033;-69
2021/03/04 00:48:45;;;;;;;17.40;8.18;;;9.50;99.90;;;9.23;100.00;102173.66;4119949;28;20031;-69
2021/03/04 00:50:46;;;;;;;18.83;8.57;;;9.50;99.90;;;9.09;100.00;102176.44;4119586;28;20054;-69
2021/03/04 00:52:47;;;;;;;13.32;8.73;;;9.50;99.90;;;8.99;100.00;102157.03;4135646;28;20033;-69
2021/03/04 00:54:47;;;;;;;13.52;8.13;;;9.50;99.90;;;8.98;100.00;102148.28;4119458;28;20134;-69
2021/03/04 00:56:48;;;;;;;17.67;8.90;;;9.50;99.90;;;9.20;100.00;102163.38;4119337;28;20031;-69
2021/03/04 00:58:49;;;;;;;9.18;7.65;;;9.50;99.90;;;9.30;100.00;102174.88;4119529;28;20027;-70
2021/03/04 01:00:50;;;;;;;12.35;8.05;;;9.60;99.90;;;9.19;100.00;102156.41;4136610;28;20035;-70
2021/03/04 01:02:52;;;;;;;12.55;7.55;;;9.60;99.90;;;8.85;100.00;102110.66;4119573;28;20520;-70
2021/03/04 01:04:52;;;;;;;16.20;9.05;;;9.60;99.90;;;9.16;100.00;102156.63;4136646;28;20040;-70
2021/03/04 01:06:53;;;;;;;21.73;8.93;;;9.60;99.90;;;9.20;100.00;102148.38;4119212;28;20038;-70
2021/03/04 01:08:54;;;;;;;9.38;7.55;;;9.60;99.90;;;9.19;100.00;102146.72;4119263;28;20035;-69
2021/03/04 01:10:55;;;;;;;10.98;7.40;;;9.60;99.90;;;9.22;100.00;102158.81;4119376;28;20237;-69
2021/03/04 01:12:56;;;;;;;13.82;7.32;;;9.60;99.90;;;9.21;100.00;102152.72;4136120;28;20089;-69
2021/03/04 01:14:57;;;;;;;15.82;7.63;;;9.70;99.90;;;9.23;100.00;102163.13;4136340;28;20062;-69
2021/03/04 01:16:59;;;;;;;12.02;7.78;;;9.60;99.90;;;9.16;100.00;102148.75;4136301;28;20022;-69
2021/03/04 01:19:00;;;;;;;11.45;8.02;;;9.60;99.90;;;9.25;100.00;102159.44;4136243;28;20027;-69
2021/03/04 01:21:03;;;;;;;10.30;7.97;;;9.70;99.90;;;9.25;100.00;102154.19;4119068;28;20022;-69
2021/03/04 01:23:04;;;;;;;13.05;8.40;;;9.70;99.90;;;9.37;100.00;102165.59;4119114;28;20074;-69
2021/03/04 01:25:06;;;;;;;13.93;7.72;;;9.70;99.90;;;9.38;100.00;102156.72;4134980;28;20062;-69
2021/03/04 01:27:08;;;;;;;10.05;7.13;;;9.70;99.90;;;9.48;100.00;102163.00;4118679;28;20549;-69
2021/03/04 01:29:09;;;;;;;10.48;7.53;;;9.80;99.90;;;9.44;100.00;102161.53;4118953;28;20050;-69
2021/03/04 01:31:10;;;;;;;15.32;7.55;;;9.80;99.90;;;9.39;100.00;102159.25;4118260;28;20033;-70
2021/03/04 01:33:10;;;;;;;10.90;7.25;;;9.80;99.90;;;9.23;100.00;102134.16;4136059;28;20030;-69
2021/03/04 01:35:12;;;;;;;13.05;7.82;;;9.80;99.90;;;9.18;100.00;102128.41;4136086;28;20121;-69
2021/03/04 01:37:13;;;;;;;11.30;7.50;;;9.80;99.90;;;9.18;100.00;102128.41;4135880;28;20030;-69
2021/03/04 01:39:14;;;;;;;11.70;7.53;;;9.70;99.90;;;9.28;100.00;102158.38;4136104;28;20041;-69
2021/03/04 01:41:15;;;;;;;11.93;8.10;;;9.80;99.90;;;9.27;100.00;102139.09;4135992;28;20026;-70
2021/03/04 01:43:15;;;;;;;12.00;8.20;;;9.80;99.90;;;9.22;100.00;102141.25;4118371;28;20033;-69
2021/03/04 01:45:17;;;;;;;17.13;8.77;;;9.80;99.90;;;9.20;100.00;102137.03;4135742;28;20520;-70
2021/03/04 01:47:20;;;;;;;13.93;7.70;;;9.80;99.90;;;9.18;100.00;102129.25;4118832;28;20031;-70
2021/03/04 01:49:22;;;;;;;12.80;8.68;;;9.80;99.90;;;9.16;100.00;102128.53;4118765;28;20105;-69
2021/03/04 01:51:23;;;;;;;14.05;8.30;;;9.70;99.90;;;9.10;100.00;102125.50;4135903;28;20493;-69
2021/03/04 01:53:24;;;;;;;21.42;9.65;;;9.80;99.90;;;9.16;100.00;102135.56;4135718;28;20026;-70
2021/03/04 01:55:25;;;;;;;13.73;9.55;;;9.70;99.90;;;9.29;100.00;102133.69;4118597;28;20023;-69
2021/03/04 01:57:29;;;;;;;14.90;10.15;;;9.80;99.90;;;9.29;100.00;102131.91;4118430;28;20031;-70
2021/03/04 01:59:31;;;;;;;20.52;10.02;;;9.70;99.90;;;9.21;100.00;102136.06;4135771;28;20034;-70
2021/03/04 02:01:33;;;;;;;13.57;8.88;;;9.70;99.90;;;9.18;100.00;102128.41;4135906;28;20395;-70
2021/03/04 02:03:34;;;;;;;12.90;9.43;;;9.70;99.90;;;9.21;100.00;102129.00;4135769;28;20054;-70
2021/03/04 02:05:35;;;;;;;24.10;10.40;;;9.70;99.90;;;9.26;100.00;102128.66;4135764;28;20038;-70
2021/03/04 02:07:47;;;;;;;18.00;11.07;;;9.70;99.90;;;9.32;100.00;102121.16;4135680;28;20042;-70
2021/03/04 02:10:17;;;;;;;16.10;10.10;;;9.70;99.90;;;9.14;100.00;102119.06;4135751;28;20041;-70
2021/03/04 02:13:02;;;;;;;16.65;9.55;;;9.80;99.90;;;8.98;100.00;102079.88;4135421;28;20037;-70
2021/03/04 02:15:08;;;;;;;17.55;9.10;;;9.70;99.90;;;9.19;100.00;102114.28;4126226;28;20046;-70
2021/03/04 02:17:11;;;;;;;17.25;10.27;;;9.60;99.90;;;9.22;100.00;102114.06;4118779;28;20023;-70
2021/03/04 02:19:48;;;;;;;14.88;9.75;;;9.60;99.90;;;9.22;100.00;102109.66;4102254;29;20066;-70
2021/03/04 02:22:45;;;;;;;17.75;10.05;;;9.70;99.90;;;9.26;100.00;102107.59;4128298;28;20392;-70
2021/03/04 02:25:06;;;;;;;18.13;9.77;;;9.70;99.90;;;9.30;100.00;102101.16;4135925;28;20132;-70
2021/03/04 02:27:17;;;;;;;20.35;11.23;;;9.70;99.90;;;9.26;100.00;102095.28;4135193;28;20022;-70
2021/03/04 02:29:22;;;;;;;22.15;9.70;;;9.70;99.90;;;9.27;100.00;102082.97;4134403;28;20037;-70
2021/03/04 02:31:29;;;;;;;14.20;9.55;;;9.70;99.90;;;9.05;100.00;102080.25;4135602;28;20577;-70
2021/03/04 02:33:32;;;;;;;14.70;9.90;;;9.70;99.90;;;9.03;100.00;102079.50;4118641;28;20035;-70
2021/03/04 02:35:35;;;;;;;15.90;9.63;;;9.60;99.90;;;9.04;100.00;102058.34;4118235;28;20127;-70
2021/03/04 02:37:42;;;;;;;20.00;10.55;;;9.70;99.90;;;9.39;100.00;102087.31;4102451;28;20267;-70
2021/03/04 02:39:46;;;;;;;16.83;9.85;;;9.70;99.90;;;9.41;100.00;102088.88;4119013;28;20034;-70
2021/03/04 02:41:47;;;;;;;19.30;9.48;;;9.80;99.90;;;9.42;100.00;102087.91;4135976;28;20556;-70
2021/03/04 02:43:48;;;;;;;25.55;10.45;;;9.80;99.90;;;9.40;100.00;102092.47;4138647;28;20109;-70
2021/03/04 02:45:51;;;;;;;17.90;9.80;;;9.80;99.90;;;9.44;100.00;102083.38;4121411;28;20034;-70
2021/03/04 02:47:53;;;;;;;20.98;10.32;;;9.80;99.90;;;9.32;100.00;102080.81;4138894;28;20031;-70
2021/03/04 02:49:55;;;;;;;14.55;9.40;;;9.80;99.90;;;9.30;100.00;102086.22;4138656;28;20081;-70
2021/03/04 02:51:56;;;;;;;15.15;10.30;;;9.80;99.90;;;9.27;100.00;102077.69;4105253;28;20027;-70
2021/03/04 02:53:59;;;;;;;19.08;10.18;;;9.80;99.90;;;9.24;100.00;102062.97;4121334;28;20046;-70
2021/03/04 02:56:02;;;;;;;16.52;10.85;;;9.80;99.90;;;9.41;100.00;102080.13;4121237;28;20502;-70
2021/03/04 02:58:07;;;;;;;16.90;10.25;;;9.80;99.90;;;9.53;100.00;102076.56;4120847;28;20030;-70
2021/03/04 03:00:13;;;;;;;15.48;9.68;;;9.90;99.90;;;9.58;100.00;102073.59;4121651;28;20105;-70
2021/03/04 03:02:15;;;;;;;17.73;10.38;;;10.00;99.90;;;9.57;100.00;102061.34;4105042;28;20031;-70
2021/03/04 03:04:18;;;;;;;18.88;10.43;;;10.00;99.90;;;9.32;100.00;102043.94;4121058;28;20031;-70
2021/03/04 03:06:22;;;;;;;13.52;9.00;;;10.00;99.90;;;9.04;100.00;102021.50;4121083;28;20039;-70
2021/03/04 03:08:24;;;;;;;18.20;10.35;;;9.90;99.90;;;9.43;100.00;102062.44;4138368;28;20185;-70
2021/03/04 03:10:26;;;;;;;14.85;9.38;;;9.90;99.90;;;9.29;100.00;102046.81;4121084;28;20043;-70
2021/03/04 03:12:27;;;;;;;23.50;9.05;;;9.90;99.90;;;9.39;100.00;102058.34;4121021;28;20035;-70
2021/03/04 03:14:30;;;;;;;29.80;10.27;;;9.90;99.90;;;8.97;100.00;102045.75;4120863;28;20030;-70
2021/03/04 03:16:31;;;;;;;14.13;8.93;;;9.90;99.90;;;9.20;100.00;102042.25;4138327;28;20033;-70
2021/03/04 03:18:31;;;;;;;11.18;8.23;;;9.80;99.90;;;9.27;100.00;102059.25;4121029;28;20487;-70
2021/03/04 03:20:33;;;;;;;15.77;9.13;;;9.80;99.90;;;9.18;100.00;102054.69;4138214;28;20026;-70
2021/03/04 03:22:34;;;;;;;14.70;9.40;;;9.80;99.90;;;9.28;100.00;102067.06;4120896;28;20031;-70
2021/03/04 03:24:35;;;;;;;14.07;9.05;;;9.70;99.90;;;9.43;100.00;102075.59;4138313;28;20038;-70
2021/03/04 03:26:36;;;;;;;19.17;9.05;;;9.80;99.90;;;9.30;100.00;102069.56;4137908;28;20030;-70
2021/03/04 03:28:40;;;;;;;14.30;9.38;;;9.80;99.90;;;9.38;100.00;102069.81;4120872;28;20035;-70
2021/03/04 03:30:41;;;;;;;15.18;8.35;;;9.80;99.90;;;9.37;100.00;102055.00;4120704;28;20103;-70
2021/03/04 03:32:47;;;;;;;22.10;10.10;;;9.80;99.90;;;9.50;100.00;102066.25;4120838;28;20047;-70
2021/03/04 03:34:48;;;;;;;18.58;10.25;;;9.80;99.90;;;9.31;100.00;102056.28;4137884;28;20085;-70
2021/03/04 03:36:49;;;;;;;21.58;10.55;;;9.80;99.90;;;9.29;100.00;102052.91;4137964;28;20057;-70
2021/03/04 03:38:53;;;;;;;19.15;10.02;;;9.80;99.90;;;9.41;100.00;102056.41;4120637;28;20030;-70
2021/03/04 03:40:56;;;;;;;22.77;11.00;;;9.90;99.90;;;9.26;100.00;102044.41;4120732;28;20095;-70
2021/03/04 03:42:59;;;;;;;18.25;10.40;;;9.90;99.90;;;9.27;100.00;102048.72;4137546;28;20519;-70
2021/03/04 03:45:03;;;;;;;19.17;10.95;;;9.90;99.90;;;9.38;100.00;102044.31;4120675;28;20089;-70
2021/03/04 03:47:06;;;;;;;20.02;10.80;;;9.90;99.90;;;9.40;100.00;102057.38;4137951;28;20389;-70
2021/03/04 03:49:11;;;;;;;20.52;10.35;;;9.90;99.90;;;9.36;100.00;102040.13;4120505;28;20034;-70
2021/03/04 03:51:13;;;;;;;25.33;12.15;;;9.90;99.90;;;9.33;100.00;102040.38;4137611;28;20109;-69
2021/03/04 03:53:16;;;;;;;24.38;11.77;;;9.90;99.90;;;9.23;100.00;102039.38;4119690;28;20051;-69
2021/03/04 03:55:18;;;;;;;24.67;11.52;;;9.90;99.90;;;9.29;100.00;102052.06;4120099;28;20098;-70
2021/03/04 03:57:20;;;;;;;18.05;10.93;;;9.80;99.90;;;9.35;100.00;102044.56;4137531;28;20497;-70
2021/03/04 03:59:23;;;;;;;20.92;10.48;;;9.80;99.90;;;9.28;100.00;102026.72;4120462;28;20086;-70
2021/03/04 04:01:29;;;;;;;25.13;11.77;;;9.80;99.90;;;9.34;100.00;102036.78;4137634;28;20478;-70
2021/03/04 04:03:31;;;;;;;22.00;9.80;;;9.70;99.90;;;9.03;100.00;102004.03;4137663;28;20524;-70
2021/03/04 04:05:32;;;;;;;20.30;11.57;;;9.70;99.90;;;9.12;100.00;102028.81;4137529;28;20041;-70
2021/03/04 04:07:34;;;;;;;25.63;10.48;;;9.60;99.90;;;8.98;100.00;102006.19;4137527;28;20445;-69
2021/03/04 04:09:36;;;;;;;24.35;10.63;;;9.50;99.90;;;8.98;100.00;102024.59;4137277;28;20037;-70
2021/03/04 04:11:37;;;;;;;18.08;9.90;;;9.50;99.90;;;8.97;100.00;102037.84;4120040;28;20113;-70
2021/03/04 04:13:38;;;;;;;15.98;10.32;;;9.40;99.90;;;8.92;100.00;102030.31;4120076;28;20043;-70
2021/03/04 04:15:39;;;;;;;18.83;9.93;;;9.40;99.90;;;8.89;100.00;102022.66;4119992;28;20030;-70
2021/03/04 04:17:40;;;;;;;21.13;10.07;;;9.30;99.90;;;8.98;100.00;102021.97;4137201;28;20073;-70
2021/03/04 04:19:41;;;;;;;20.92;10.45;;;9.30;99.90;;;8.78;100.00;102010.28;4119972;28;20102;-70
2021/03/04 04:21:42;;;;;;;16.85;9.07;;;9.30;99.90;;;8.95;100.00;102032.72;4120030;28;20031;-70
2021/03/04 04:23:44;;;;;;;18.48;9.02;;;9.20;99.90;;;8.84;100.00;102015.09;4135920;28;20038;-70
2021/03/04 04:25:53;;;;;;;20.23;9.02;;;9.20;99.90;;;8.71;100.00;102024.84;4119684;28;20027;-70
2021/03/04 04:27:56;;;;;;;20.02;9.35;;;9.10;99.90;;;8.52;100.00;102007.88;4137056;28;20422;-70
2021/03/04 04:29:57;;;;;;;19.00;9.43;;;9.00;99.90;;;8.49;100.00;102018.63;4119815;28;20037;-70
2021/03/04 04:31:58;;;;;;;19.05;8.57;;;9.00;99.90;;;8.46;100.00;102009.16;4136867;28;20097;-70
2021/03/04 04:33:58;;;;;;;19.08;8.60;;;8.90;99.90;;;8.55;100.00;102021.66;4136913;28;20027;-70
2021/03/04 04:35:59;;;;;;;21.42;9.13;;;8.90;99.90;;;8.53;100.00;102015.69;4136826;28;20506;-70
2021/03/04 04:38:00;;;;;;;23.23;11.50;;;8.80;99.90;;;8.56;99.65;102020.72;4119718;28;20053;-70
2021/03/04 04:40:02;;;;;;;16.75;9.07;;;8.80;99.90;;;8.47;100.00;102021.38;4137011;28;20085;-70
2021/03/04 04:42:04;;;;;;;22.92;9.45;;;8.70;99.90;;;8.29;99.89;102001.69;4136522;28;20030;-69
2021/03/04 04:44:06;;;;;;;17.23;9.75;;;8.70;99.90;;;8.39;100.00;102023.72;4136929;28;20042;-69
2021/03/04 04:46:07;;;;;;;17.65;9.82;;;8.70;99.90;;;8.30;100.00;102012.06;4136881;28;20026;-70
2021/03/04 04:48:08;;;;;;;18.77;9.98;;;8.70;99.90;;;8.20;100.00;102004.94;4136808;28;20029;-70
2021/03/04 04:50:10;;;;;;;23.88;10.00;;;8.60;99.90;;;8.11;100.00;101989.81;4119576;28;20562;-70
2021/03/04 04:52:11;;;;;;;16.85;9.07;;;8.60;99.90;;;8.31;100.00;102012.91;4136711;28;20038;-70
2021/03/04 04:54:12;;;;;;;19.52;9.77;;;8.70;99.90;;;8.29;100.00;102012.19;4119474;28;20018;-70
2021/03/04 04:56:12;;;;;;;18.83;9.48;;;8.60;99.90;;;8.28;100.00;102005.25;4119389;28;20031;-70
2021/03/04 04:58:13;;;;;;;17.83;9.35;;;8.60;99.90;;;8.30;100.00;102013.88;4136252;28;20410;-69
2021/03/04 05:00:15;;;;;;;16.60;8.63;;;8.60;99.90;;;8.21;100.00;102004.00;4136530;28;20026;-69
2021/03/04 05:02:16;;;;;;;23.83;9.50;;;8.60;99.90;;;8.20;100.00;101997.03;4136168;28;20026;-69
2021/03/04 05:04:17;;;;;;;19.77;10.43;;;8.70;99.90;;;8.29;100.00;102002.50;4119253;28;20485;-70
2021/03/04 05:06:19;;;;;;;15.75;8.93;;;8.70;99.90;;;8.39;100.00;102009.75;4118928;28;20054;-69
2021/03/04 05:08:20;;;;;;;23.38;9.95;;;8.80;99.90;;;8.33;100.00;101996.06;4119207;28;20034;-70
2021/03/04 05:10:21;;;;;;;14.52;9.65;;;8.80;99.90;;;8.44;100.00;102005.81;4119226;28;20058;-69
2021/03/04 05:12:22;;;;;;;18.23;11.05;;;8.80;99.90;;;8.52;99.82;102016.63;4136112;28;20304;-69
2021/03/04 05:14:23;;;;;;;18.45;9.68;;;8.90;99.90;;;8.38;100.00;101995.75;4136273;28;20113;-70
2021/03/04 05:16:24;;;;;;;23.65;9.75;;;8.90;99.90;;;8.32;100.00;102010.19;4119134;28;20433;-69
2021/03/04 05:18:25;;;;;;;23.35;11.27;;;8.80;99.90;;;8.23;100.00;101999.44;4136295;28;20049;-70
2021/03/04 05:20:26;;;;;;;19.50;10.98;;;8.80;99.90;;;8.28;100.00;101989.47;4118895;28;20038;-69
2021/03/04 05:22:27;;;;;;;22.48;11.48;;;8.80;99.90;;;8.50;100.00;102010.63;4118839;28;20048;-69
2021/03/04 05:24:27;;;;;;;29.83;11.65;;;8.80;99.90;;;8.35;100.00;101985.47;4136404;28;20037;-70
2021/03/04 05:26:28;;;;;;;25.48;10.57;;;8.90;99.90;;;8.41;100.00;102008.69;4136037;28;20026;-70
2021/03/04 05:28:29;;;;;;;28.98;12.18;;;8.90;99.90;;;8.47;100.00;102010.00;4136234;28;20030;-70
2021/03/04 05:30:30;;;;;;;27.85;11.52;;;8.90;99.90;;;8.48;100.00;102007.28;4136091;28;20085;-70
2021/03/04 05:32:31;;;;;;;30.77;12.73;;;8.90;99.90;;;8.56;100.00;102004.09;4118619;28;20410;-70
2021/03/04 05:34:32;;;;;;;28.73;11.80;;;8.90;99.90;;;8.47;100.00;101981.94;4135990;28;20050;-70
2021/03/04 05:36:33;;;;;;;33.40;11.57;;;9.00;99.90;;;8.45;100.00;101983.00;4136065;28;20027;-70
2021/03/04 05:38:34;;;;;;;21.90;11.45;;;9.00;99.90;;;8.48;100.00;101978.38;4136007;28;20481;-70
2021/03/04 05:40:36;;;;;;;23.77;11.25;;;9.00;99.90;;;8.52;100.00;101992.94;4136135;28;20026;-70
2021/03/04 05:42:41;;;;;;;30.48;12.23;;;9.00;99.90;;;8.55;100.00;101997.97;4118603;28;20109;-70
2021/03/04 05:44:43;;;;;;;20.50;11.48;;;9.00;99.90;;;8.56;100.00;101994.41;4119363;28;20042;-70
2021/03/04 05:46:47;;;;;;;22.95;11.27;;;9.00;99.90;;;8.65;100.00;101999.00;4135890;28;20437;-70
2021/03/04 05:48:50;;;;;;;23.15;11.23;;;9.00;99.90;;;8.66;100.00;101998.03;4136003;28;20037;-70
2021/03/04 05:50:55;;;;;;;23.93;10.97;;;9.00;99.90;;;8.58;100.00;101996.91;4135999;28;20038;-70
2021/03/04 05:53:04;;;;;;;17.80;10.80;;;9.00;99.90;;;8.68;100.00;101992.66;4102781;28;20118;-70
2021/03/04 05:55:06;;;;;;;18.50;10.95;;;9.10;99.90;;;8.70;100.00;101983.72;4134548;28;20074;-69
2021/03/04 05:57:08;;;;;;;17.60;11.35;;;9.10;99.90;;;8.64;100.00;101992.03;4118386;28;20034;-69
2021/03/04 05:59:10;;;;;;;13.90;9.45;;;9.10;99.90;;;8.61;100.00;102002.78;4118602;28;20023;-70
2021/03/04 06:01:12;;;;;;;17.75;10.70;;;9.10;99.90;;;8.65;100.00;102000.78;4118725;28;20102;-69
2021/03/04 06:03:13;;;;;;;15.98;9.63;;;9.00;99.90;;;8.54;100.00;101985.78;4118260;28;20062;-70
2021/03/04 06:05:15;;;;;;;18.58;11.07;;;9.00;99.90;;;8.62;100.00;101993.13;4118379;28;20034;-70
2021/03/04 06:07:16;;;;;;;13.20;9.52;;;9.10;99.90;;;8.50;100.00;101988.75;4135759;28;20049;-70
2021/03/04 06:09:17;;;;;;;20.20;11.23;;;9.00;99.90;;;8.53;100.00;101986.75;4118268;28;20142;-69
2021/03/04 06:11:18;;;;;;;25.30;11.98;;;9.00;99.90;;;8.52;100.00;101990.31;4135326;28;20050;-70
2021/03/04 06:13:19;;;;;;;20.88;10.27;;;9.00;99.90;;;8.44;100.00;101991.84;4118180;28;20082;-70
2021/03/04 06:15:22;;;;;;;19.13;10.70;;;9.00;99.90;;;8.52;100.00;101990.31;4118529;28;20034;-70
2021/03/04 06:17:23;;;;;;;13.18;8.02;;;9.00;99.90;;;8.31;100.00;101962.97;4125473;28;20027;-70
2021/03/04 06:19:24;;;;;;;11.32;8.52;;;9.00;99.90;;;8.51;100.00;101993.88;4140914;28;20467;-70
2021/03/04 06:21:28;;;;;;;13.30;8.05;;;9.00;99.90;;;8.50;100.00;101992.22;4141053;28;20390;-70
2021/03/04 06:23:32;;;;;;;13.63;9.47;;;9.00;99.90;;;8.63;100.00;101994.81;4141033;28;20027;-70
2021/03/04 06:25:33;;;;;;;10.50;7.75;;;9.00;99.90;;;8.51;100.00;101986.00;4141016;28;20062;-70
2021/03/04 06:27:39;;;;;;;16.95;8.65;;;9.00;99.90;;;8.38;100.00;101979.97;4140746;28;20048;-69
2021/03/04 06:29:50;;;;;;;14.13;8.63;;;9.00;99.90;;;8.33;100.00;101982.91;4124181;28;20469;-70
2021/03/04 06:32:08;;;;;;;12.27;8.65;;;9.00;99.90;;;8.55;100.00;101997.13;4140765;28;20033;-69
2021/03/04 06:34:20;;;;;;;11.85;8.63;;;9.00;99.90;;;8.58;100.00;102002.16;4140967;28;20050;-70
2021/03/04 06:36:21;;;;;;;15.85;8.93;;;9.00;99.90;;;8.68;100.00;102001.41;4108828;28;20039;-70
2021/03/04 06:38:25;;;;;;;11.40;8.10;;;9.10;99.90;;;8.73;100.00;102003.69;4108832;28;20067;-70
2021/03/04 06:40:31;;;;;;;;;;;9.20;99.90;;;8.68;100.00;102006.66;4104885;29;20031;-71
2021/03/04 06:42:41;;;;;;;11.75;8.15;;;9.20;99.90;;;8.74;100.00;102006.22;4105966;29;19926;-72
2021/03/04 06:44:54;;;;;;;10.05;8.55;;;9.20;99.90;;;8.65;100.00;102000.78;4105295;29;20038;-71
2021/03/04 06:46:55;;;;;;;11.73;8.02;;;9.20;99.90;;;8.71;100.00;102010.84;4107132;28;20031;-71
2021/03/04 06:48:56;;;;;;;12.35;9.18;;;9.20;99.90;;;8.68;100.00;102011.94;4112126;28;20494;-72
2021/03/04 06:51:04;;;;;;;17.25;9.32;;;9.20;99.90;;;8.66;100.00;102005.91;4101114;28;20030;-71
2021/03/04 06:53:22;;;;;;;13.60;8.80;;;9.20;99.90;;;8.66;100.00;102010.38;4091416;29;20039;-71
2021/03/04 06:55:23;;;;;;;10.95;9.00;;;9.20;99.90;;;8.69;100.00;102003.06;4095982;29;20027;-71
2021/03/04 06:57:24;;;;;;;11.85;8.80;;;9.20;99.90;;;8.71;100.00;102011.69;4106957;29;20050;-72
2021/03/04 06:59:24;;;;;;;16.33;9.90;;;9.20;99.90;;;8.60;100.00;101989.78;4107806;28;20038;-71
2021/03/04 07:01:25;;;;;;;19.85;10.65;;;9.20;99.90;;;8.77;100.00;102011.25;4108149;28;20023;-71
2021/03/04 07:03:45;;;;;;;10.93;8.35;;;9.30;99.90;;;8.80;100.00;101989.97;4107457;29;20027;-72
2021/03/04 07:05:46;;;;;;;9.75;8.00;;;9.30;99.90;;;8.84;100.00;102004.56;4107166;28;20545;-70
2021/03/04 07:07:52;;;;;;;15.77;9.15;;;9.40;99.90;;;8.82;100.00;101989.84;4117289;28;20030;-71
2021/03/04 07:10:04;;;;;;;10.23;8.70;;;9.40;99.90;;;8.94;100.00;102011.78;4106716;29;20530;-72
2021/03/04 07:12:08;;;;;;;11.80;9.25;;;9.40;99.90;;;8.82;100.00;101998.59;4090543;29;20035;-73
2021/03/04 07:14:09;;;;;;;15.75;9.30;;;9.40;99.90;;;8.95;100.00;102013.47;4117222;28;20035;-72
2021/03/04 07:16:18;;;;;;;11.48;8.55;;;9.40;99.90;;;8.99;100.00;102007.84;4083747;29;20040;-72
2021/03/04 07:18:20;;;;;;;11.73;9.00;;;9.50;99.90;;;9.00;100.00;102011.31;4106665;29;20027;-70
2021/03/04 07:20:21;;;;;;;10.63;8.48;;;9.50;99.90;;;8.85;100.00;101992.25;4122560;28;20074;-70
2021/03/04 07:22:25;;;;;;;15.50;8.70;;;9.50;99.90;;;8.75;100.00;101997.34;4106474;29;20122;-69
2021/03/04 07:24:26;;;;;;;11.48;8.50;;;9.50;99.90;;;8.72;100.00;102000.19;4093969;29;20033;-69
2021/03/04 07:26:28;;;;;;;9.63;8.10;;;9.50;99.90;;;8.83;100.00;102005.53;4122577;28;20454;-70
2021/03/04 07:28:30;;;;;;;10.80;8.90;;;9.50;99.90;;;8.96;100.00;102002.00;4105297;28;20087;-70
2021/03/04 07:30:31;;;;;;;9.63;7.40;;;9.50;99.90;;;8.89;100.00;102007.72;4117289;28;20034;-70
2021/03/04 07:32:32;;;;;;;9.55;7.93;;;9.50;99.90;;;8.84;100.00;102009.81;4105329;28;20042;-71
2021/03/04 07:34:39;;;;;;;13.90;8.20;;;9.60;99.90;;;8.92;100.00;102004.00;4107068;28;20556;-70
2021/03/04 07:36:40;;;;;;;9.13;7.85;;;9.60;99.90;;;8.83;100.00;102005.53;4108770;28;20398;-70
2021/03/04 07:38:41;;;;;;;13.48;9.32;;;9.50;99.90;;;8.82;100.00;102006.47;4119632;28;20038;-73
2021/03/04 07:40:42;;;;;;;12.93;8.90;;;9.50;99.90;;;8.98;100.00;102015.84;4120253;28;20023;-72
2021/03/04 07:42:43;;;;;;;13.20;9.80;;;9.60;99.90;;;8.93;100.00;101991.69;4119088;28;20031;-71
2021/03/04 07:44:44;;;;;;;13.50;8.82;;;9.60;99.90;;;9.01;100.00;102020.91;4119812;28;20562;-72
2021/03/04 07:46:52;;;;;;;13.18;9.50;;;9.60;99.90;;;9.09;100.00;102014.09;4119589;28;20035;-72
2021/03/04 07:48:53;;;;;;;11.73;8.35;;;9.60;99.90;;;8.98;100.00;102000.06;4120072;28;20552;-74
2021/03/04 07:50:59;;;;;;;11.85;9.10;;;9.70;99.90;;;8.96;100.00;101991.47;4117334;28;20043;-72
2021/03/04 07:53:04;;;;;;;11.25;8.70;;;9.60;99.90;;;9.00;100.00;102013.94;4135444;28;20073;-72
2021/03/04 07:55:12;;;;;;;13.35;9.77;;;9.70;99.90;;;9.15;100.00;102024.16;4117732;28;20034;-72
2021/03/04 07:57:20;;;;;;;10.43;9.07;;;9.80;99.90;;;9.10;100.00;102018.41;4119257;28;20125;-72
2021/03/04 07:59:20;;;;;;;11.55;8.60;;;9.70;99.90;;;9.17;100.00;102019.63;4119760;28;20109;-72
2021/03/04 08:01:22;;;;;;;17.70;9.20;;;9.80;99.90;;;9.06;100.00;101995.06;4119640;28;20019;-72
2021/03/04 08:03:22;;;;;;;14.80;9.43;;;9.80;99.90;;;9.19;100.00;102003.72;4119702;28;20110;-72
2021/03/04 08:05:36;;;;;;;19.80;9.23;;;9.80;99.90;;;9.26;100.00;102021.56;4120844;28;20034;-72
2021/03/04 08:07:39;;;;;;;13.55;8.85;;;9.90;99.90;;;9.24;100.00;102012.94;4120953;28;20031;-72
2021/03/04 08:09:39;;;;;;;15.25;11.50;;;9.90;99.90;;;9.41;100.00;102023.03;4119107;28;20097;-71
2021/03/04 08:11:40;;;;;;;21.45;12.60;;;10.00;99.90;;;9.39;100.00;101998.59;4120625;28;20035;-71
2021/03/04 08:13:41;;;;;;;16.15;11.07;;;10.00;99.90;;;9.36;100.00;102000.63;4118354;28;20093;-71
2021/03/04 08:15:46;;;;;;;16.45;11.75;;;10.00;99.90;;;9.15;100.00;101958.34;4115819;28;20038;-72
2021/03/04 08:17:47;;;;;;;14.60;10.60;;;10.10;99.90;;;9.38;100.00;102014.50;4120700;28;20054;-72
2021/03/04 08:19:49;;;;;;;17.67;11.27;;;10.10;99.90;;;9.32;100.00;101993.91;4117446;28;20023;-71
2021/03/04 08:21:49;;;;;;;15.73;10.25;;;10.10;99.90;;;9.48;100.00;102020.75;4120639;28;20121;-72
2021/03/04 08:23:51;;;;;;;14.57;10.70;;;10.10;99.90;;;9.43;100.00;102018.50;4118677;28;20058;-72
2021/03/04 08:25:53;;;;;;;16.17;10.88;;;10.10;99.90;;;9.36;100.00;102005.91;4119695;28;20031;-71
2021/03/04 08:27:56;;;;;;;20.08;12.50;;;10.10;99.90;;;9.32;100.00;102000.03;4115810;28;20522;-71
2021/03/04 08:29:57;;;;;;;16.35;11.82;;;10.20;99.90;;;9.49;100.00;102011.06;4120630;28;20513;-71